createdAt,value
2023-04-19T00:01:23.401Z,10.33
2023-04-19T00:03:52.068Z,10.30
2023-04-19T00:06:21.212Z,10.28
2023-04-19T00:08:49.523Z,10.28
2023-04-19T00:11:19.331Z,10.27
2023-04-19T00:13:49.333Z,10.29
2023-04-19T00:16:18.232Z,10.24
2023-04-19T00:18:46.787Z,10.27
2023-04-19T00:21:15.209Z,10.28
2023-04-19T00:23:43.512Z,10.29
2023-04-19T00:26:15.616Z,10.30
2023-04-19T00:28:49.749Z,10.32
2023-04-19T00:31:18.199Z,10.33
2023-04-19T00:33:46.546Z,10.36
2023-04-19T00:36:14.887Z,10.26
2023-04-19T00:38:43.224Z,10.21
2023-04-19T00:41:12.022Z,10.24
2023-04-19T00:43:40.380Z,10.20
2023-04-19T00:46:10.387Z,10.19
2023-04-19T00:48:40.479Z,10.23
2023-04-19T00:51:10.679Z,10.20
2023-04-19T00:53:40.190Z,10.12
2023-04-19T00:56:09.566Z,10.14
2023-04-19T00:58:40.132Z,10.09
2023-04-19T01:01:09.907Z,10.06
2023-04-19T01:03:38.558Z,10.02
2023-04-19T01:06:07.638Z,10.03
2023-04-19T01:08:36.121Z,10.00
2023-04-19T01:11:04.489Z,10.05
2023-04-19T01:13:32.882Z,10.10
2023-04-19T01:16:01.757Z,10.07
2023-04-19T01:18:37.366Z,10.08
2023-04-19T01:21:07.095Z,9.98
2023-04-19T01:23:36.934Z,9.98
2023-04-19T01:26:05.520Z,10.01
2023-04-19T01:28:34.526Z,9.97
2023-04-19T01:31:03.009Z,9.91
2023-04-19T01:33:31.394Z,9.93
2023-04-19T01:35:59.749Z,9.91
2023-04-19T01:38:28.132Z,9.87
2023-04-19T01:40:57.906Z,9.92
2023-04-19T01:43:26.519Z,9.90
2023-04-19T01:45:54.935Z,9.91
2023-04-19T01:48:23.248Z,9.89
2023-04-19T01:50:51.658Z,9.88
2023-04-19T01:53:20.024Z,9.93
2023-04-19T01:55:48.344Z,9.91
2023-04-19T01:58:18.075Z,9.85
2023-04-19T02:00:47.389Z,9.86
2023-04-19T02:03:15.969Z,9.89
2023-04-19T02:05:44.529Z,9.92
2023-04-19T02:08:12.895Z,9.97
2023-04-19T02:10:41.252Z,9.94
2023-04-19T02:13:09.773Z,9.94
2023-04-19T02:15:39.948Z,9.94
2023-04-19T02:18:08.560Z,9.91
2023-04-19T02:20:36.986Z,9.83
2023-04-19T02:23:05.643Z,9.86
2023-04-19T02:25:35.706Z,9.76
2023-04-19T02:28:04.238Z,9.80
2023-04-19T02:30:33.425Z,9.78
2023-04-19T02:33:04.130Z,9.79
2023-04-19T02:35:32.904Z,9.86
2023-04-19T02:38:03.833Z,9.73
2023-04-19T02:40:32.376Z,9.67
2023-04-19T02:43:00.762Z,9.71
2023-04-19T02:45:29.174Z,9.63
2023-04-19T02:47:58.905Z,9.62
2023-04-19T02:50:29.160Z,9.66
2023-04-19T02:52:58.894Z,9.59
2023-04-19T02:55:29.183Z,9.46
2023-04-19T02:58:06.740Z,9.49
2023-04-19T03:00:40.038Z,9.50
2023-04-19T03:03:12.558Z,9.53
2023-04-19T03:05:42.375Z,9.42
2023-04-19T03:08:12.059Z,9.44
2023-04-19T03:10:41.127Z,9.42
2023-04-19T03:13:10.678Z,9.42
2023-04-19T03:15:39.148Z,9.39
2023-04-19T03:18:07.929Z,9.35
2023-04-19T03:20:38.382Z,9.46
2023-04-19T03:23:08.862Z,9.42
2023-04-19T03:25:37.220Z,9.48
2023-04-19T03:28:20.299Z,9.47
2023-04-19T03:31:08.692Z,9.52
2023-04-19T03:33:37.196Z,9.44
2023-04-19T03:36:06.494Z,9.46
2023-04-19T03:38:37.843Z,9.46
2023-04-19T03:41:20.455Z,9.45
2023-04-19T03:43:51.676Z,9.49
2023-04-19T03:46:21.369Z,9.52
2023-04-19T03:48:52.424Z,9.48
2023-04-19T03:51:21.837Z,9.47
2023-04-19T03:53:51.687Z,9.44
2023-04-19T03:56:21.053Z,9.48
2023-04-19T03:58:52.769Z,9.48
2023-04-19T04:01:21.783Z,9.52
2023-04-19T04:03:51.740Z,9.53
2023-04-19T04:06:20.629Z,9.51
2023-04-19T04:08:49.331Z,9.47
2023-04-19T04:11:19.150Z,9.51
2023-04-19T04:13:50.514Z,9.48
2023-04-19T04:16:23.315Z,9.48
2023-04-19T04:18:54.138Z,9.50
2023-04-19T04:21:27.275Z,9.51
2023-04-19T04:23:58.008Z,9.56
2023-04-19T04:26:39.406Z,9.54
2023-04-19T04:29:15.505Z,9.55
2023-04-19T04:31:44.742Z,9.53
2023-04-19T04:34:15.026Z,9.56
2023-04-19T04:36:51.449Z,9.56
2023-04-19T04:39:21.738Z,9.55
2023-04-19T04:41:51.966Z,9.61
2023-04-19T04:44:22.501Z,9.59
2023-04-19T04:46:50.974Z,9.63
2023-04-19T04:49:25.841Z,9.63
2023-04-19T04:51:54.285Z,9.61
2023-04-19T04:54:23.680Z,9.63
2023-04-19T04:56:54.239Z,9.64
2023-04-19T04:59:23.410Z,9.59
2023-04-19T05:01:51.955Z,9.63
2023-04-19T05:04:21.030Z,9.57
2023-04-19T05:06:49.534Z,9.56
2023-04-19T05:09:23.559Z,9.56
2023-04-19T05:11:53.683Z,9.57
2023-04-19T05:14:22.244Z,9.54
2023-04-19T05:16:50.673Z,9.53
2023-04-19T05:19:19.321Z,9.57
2023-04-19T05:21:54.609Z,9.55
2023-04-19T05:24:23.044Z,9.65
2023-04-19T05:26:54.072Z,9.62
2023-04-19T05:29:22.585Z,9.62
2023-04-19T05:31:54.940Z,9.67
2023-04-19T05:34:27.190Z,9.71
2023-04-19T05:36:57.750Z,9.76
2023-04-19T05:39:26.229Z,9.73
2023-04-19T05:41:56.121Z,9.81
2023-04-19T05:44:24.507Z,9.76
2023-04-19T05:46:53.065Z,9.80
2023-04-19T05:49:36.172Z,9.80
2023-04-19T05:52:30.758Z,9.74
2023-04-19T05:55:01.524Z,9.82
2023-04-19T05:57:31.621Z,9.84
2023-04-19T06:02:46.660Z,9.90
2023-04-19T06:05:16.169Z,9.98
2023-04-19T06:07:54.444Z,10.00
2023-04-19T06:10:24.878Z,9.98
2023-04-19T06:12:56.032Z,10.07
2023-04-19T06:15:26.000Z,10.07
2023-04-19T06:17:54.835Z,10.11
2023-04-19T06:20:23.234Z,10.11
2023-04-19T06:22:51.895Z,10.02
2023-04-19T06:25:20.758Z,10.00
2023-04-19T06:27:49.211Z,9.98
2023-04-19T06:30:19.131Z,9.93
2023-04-19T06:32:47.563Z,10.00
2023-04-19T06:35:16.621Z,10.08
2023-04-19T06:37:45.031Z,9.96
2023-04-19T06:40:13.741Z,9.96
2023-04-19T06:42:42.132Z,9.92
2023-04-19T06:45:12.209Z,9.93
2023-04-19T06:47:42.123Z,9.99
2023-04-19T06:50:11.937Z,10.00
2023-04-19T06:52:40.826Z,10.10
2023-04-19T06:55:11.130Z,10.06
2023-04-19T06:57:39.681Z,10.08
2023-04-19T07:00:10.088Z,10.06
2023-04-19T07:02:38.563Z,10.01
2023-04-19T07:05:09.328Z,9.94
2023-04-19T07:07:41.641Z,9.92
2023-04-19T07:10:12.862Z,9.88
2023-04-19T07:12:41.302Z,9.94
2023-04-19T07:15:11.296Z,9.98
2023-04-19T07:17:39.932Z,10.09
2023-04-19T07:20:12.034Z,10.17
2023-04-19T07:22:40.472Z,10.08
2023-04-19T07:25:10.489Z,10.02
2023-04-19T07:27:38.895Z,10.07
2023-04-19T07:30:09.262Z,10.18
2023-04-19T07:32:37.709Z,10.23
2023-04-19T07:35:07.496Z,10.23
2023-04-19T07:37:37.472Z,10.29
2023-04-19T07:40:07.681Z,10.28
2023-04-19T07:42:36.053Z,10.26
2023-04-19T07:45:05.874Z,10.25
2023-04-19T07:47:34.398Z,10.41
2023-04-19T07:50:03.018Z,10.43
2023-04-19T07:52:31.379Z,10.32
2023-04-19T07:55:01.499Z,10.32
2023-04-19T07:57:29.928Z,10.56
2023-04-19T07:59:59.376Z,10.95
2023-04-19T08:02:28.533Z,11.19
2023-04-19T08:04:58.025Z,11.73
2023-04-19T08:07:26.541Z,12.07
2023-04-19T08:09:55.046Z,12.11
2023-04-19T08:12:35.130Z,12.29
2023-04-19T08:15:29.558Z,12.43
2023-04-19T08:17:58.759Z,12.51
2023-04-19T08:20:27.424Z,12.44
2023-04-19T08:22:55.801Z,12.44
2023-04-19T08:25:26.910Z,12.85
2023-04-19T08:27:57.490Z,12.85
2023-04-19T08:30:26.233Z,13.08
2023-04-19T08:32:56.914Z,13.22
2023-04-19T08:35:26.190Z,13.16
2023-04-19T08:37:54.539Z,13.42
2023-04-19T08:40:23.290Z,13.32
2023-04-19T08:42:51.797Z,13.32
2023-04-19T08:45:28.326Z,13.28
2023-04-19T08:48:02.017Z,13.71
2023-04-19T08:50:35.974Z,13.88
2023-04-19T08:55:58.462Z,13.91
2023-04-19T08:58:51.925Z,14.01
2023-04-19T09:01:34.766Z,14.04
2023-04-19T09:04:31.730Z,14.23
2023-04-19T09:06:56.743Z,13.98
2023-04-19T09:11:59.270Z,13.80
2023-04-19T09:14:29.436Z,14.19
2023-04-19T09:17:17.831Z,14.36
2023-04-19T09:19:50.949Z,14.24
2023-04-19T09:22:20.027Z,14.55
2023-04-19T09:27:29.943Z,14.58
2023-04-19T09:30:00.316Z,14.60
2023-04-19T09:32:43.387Z,14.95
2023-04-19T09:35:11.933Z,14.74
2023-04-19T09:38:02.101Z,14.57
2023-04-19T09:40:30.385Z,14.63
2023-04-19T09:43:11.170Z,15.00
2023-04-19T09:45:47.279Z,14.99
2023-04-19T09:48:17.130Z,14.66
2023-04-19T09:51:03.176Z,14.27
2023-04-19T09:53:35.262Z,14.23
2023-04-19T09:56:06.142Z,14.64
2023-04-19T09:58:46.987Z,14.66
2023-04-19T10:01:22.097Z,14.17
2023-04-19T10:03:53.479Z,14.04
2023-04-19T10:08:55.982Z,13.99
2023-04-19T10:11:26.912Z,13.53
2023-04-19T10:14:00.470Z,13.47
2023-04-19T10:16:29.627Z,13.98
2023-04-19T10:19:00.275Z,13.96
2023-04-19T10:21:31.025Z,14.12
2023-04-19T10:24:01.031Z,14.16
2023-04-19T10:26:29.863Z,14.18
2023-04-19T10:28:58.810Z,14.51
2023-04-19T10:31:28.106Z,14.05
2023-04-19T10:33:58.493Z,14.40
2023-04-19T10:36:29.931Z,14.06
2023-04-19T10:38:58.431Z,14.78
2023-04-19T10:41:58.663Z,15.12
2023-04-19T10:44:27.067Z,14.70
2023-04-19T10:46:55.873Z,14.33
2023-04-19T10:49:27.552Z,14.00
2023-04-19T10:51:56.265Z,14.38
2023-04-19T10:54:32.552Z,14.74
2023-04-19T10:57:04.579Z,14.34
2023-04-19T10:59:34.827Z,14.26
2023-04-19T11:02:05.687Z,14.07
2023-04-19T11:05:02.524Z,14.39
2023-04-19T11:07:39.600Z,14.39
2023-04-19T11:10:09.696Z,14.37
2023-04-19T11:12:38.869Z,14.44
2023-04-19T11:15:10.662Z,14.24
2023-04-19T11:17:39.676Z,14.19
2023-04-19T11:20:12.742Z,14.58
2023-04-19T11:22:43.917Z,14.86
2023-04-19T11:25:14.548Z,14.91
2023-04-19T11:27:44.334Z,14.89
2023-04-19T11:30:22.422Z,15.03
2023-04-19T11:32:53.592Z,15.03
2023-04-19T11:35:25.306Z,15.14
2023-04-19T11:37:54.840Z,14.77
2023-04-19T11:40:26.040Z,14.49
2023-04-19T11:43:00.552Z,14.96
2023-04-19T11:45:33.466Z,15.15
2023-04-19T11:48:07.339Z,15.22
2023-04-19T11:50:39.732Z,15.35
2023-04-19T11:53:14.401Z,14.95
2023-04-19T11:55:47.707Z,15.10
2023-04-19T11:58:32.032Z,14.47
2023-04-19T12:01:09.041Z,14.10
2023-04-19T12:03:49.866Z,14.47
2023-04-19T12:06:24.471Z,14.53
2023-04-19T12:08:55.010Z,14.65
2023-04-19T12:11:26.992Z,14.73
2023-04-19T12:14:09.897Z,14.90
2023-04-19T12:16:38.688Z,14.84
2023-04-19T12:19:14.234Z,14.75
2023-04-19T12:21:44.451Z,14.43
2023-04-19T12:24:16.636Z,14.42
2023-04-19T12:26:56.440Z,14.60
2023-04-19T12:29:24.988Z,14.68
2023-04-19T12:31:53.411Z,14.58
2023-04-19T12:34:22.012Z,14.37
2023-04-19T12:36:51.806Z,14.49
2023-04-19T12:39:20.182Z,14.75
2023-04-19T12:41:49.077Z,14.79
2023-04-19T12:44:17.597Z,14.77
2023-04-19T12:46:46.053Z,14.78
2023-04-19T12:49:14.658Z,14.65
2023-04-19T12:51:43.669Z,14.55
2023-04-19T12:54:13.364Z,14.58
2023-04-19T12:56:41.887Z,14.35
2023-04-19T12:59:11.465Z,14.62
2023-04-19T13:01:39.945Z,14.29
2023-04-19T13:04:11.822Z,14.51
2023-04-19T13:06:41.047Z,14.06
2023-04-19T13:11:42.134Z,14.47
2023-04-19T13:14:10.564Z,14.71
2023-04-19T13:16:39.081Z,14.73
2023-04-19T13:19:07.705Z,14.77
2023-04-19T13:21:36.105Z,14.89
2023-04-19T13:24:04.543Z,14.66
2023-04-19T13:26:34.425Z,14.60
2023-04-19T13:29:04.660Z,14.40
2023-04-19T13:31:33.118Z,14.15
2023-04-19T13:34:02.113Z,14.18
2023-04-19T13:36:31.128Z,14.19
2023-04-19T13:38:59.722Z,14.20
2023-04-19T13:41:28.056Z,14.38
2023-04-19T13:43:56.482Z,14.33
2023-04-19T13:46:26.304Z,14.36
2023-04-19T13:48:54.822Z,14.42
2023-04-19T13:51:23.334Z,14.36
2023-04-19T13:53:51.693Z,14.23
2023-04-19T13:56:20.157Z,14.02
2023-04-19T13:58:48.657Z,14.17
2023-04-19T14:01:17.235Z,13.80
2023-04-19T14:03:47.192Z,14.22
2023-04-19T14:06:15.693Z,14.33
2023-04-19T14:08:45.203Z,14.15
2023-04-19T14:11:13.620Z,14.21
2023-04-19T14:13:42.142Z,13.97
2023-04-19T14:16:10.606Z,14.01
2023-04-19T14:18:39.019Z,14.04
2023-04-19T14:21:08.970Z,14.10
2023-04-19T14:23:37.461Z,13.88
2023-04-19T14:26:06.226Z,14.11
2023-04-19T14:28:34.702Z,14.11
2023-04-19T14:31:03.143Z,13.95
2023-04-19T14:33:32.008Z,13.92
2023-04-19T14:36:00.473Z,14.19
2023-04-19T14:38:30.295Z,13.98
2023-04-19T14:40:58.703Z,14.28
2023-04-19T14:43:27.262Z,14.11
2023-04-19T14:45:55.741Z,14.05
2023-04-19T14:48:24.129Z,13.87
2023-04-19T14:50:52.519Z,13.74
2023-04-19T14:53:20.967Z,13.86
2023-04-19T14:55:50.728Z,13.54
2023-04-19T14:58:19.083Z,13.29
2023-04-19T15:00:47.435Z,13.24
2023-04-19T15:03:16.174Z,13.31
2023-04-19T15:05:44.743Z,13.58
2023-04-19T15:08:29.111Z,13.45
2023-04-19T15:10:59.816Z,13.47
2023-04-19T15:13:29.712Z,13.72
2023-04-19T15:15:59.520Z,13.69
2023-04-19T15:18:29.047Z,13.76
2023-04-19T15:20:57.479Z,13.64
2023-04-19T15:23:26.788Z,13.86
2023-04-19T15:25:55.878Z,13.76
2023-04-19T15:28:26.304Z,13.48
2023-04-19T15:31:00.829Z,13.60
2023-04-19T15:33:29.707Z,13.49
2023-04-19T15:35:59.152Z,13.49
2023-04-19T15:38:31.441Z,13.55
2023-04-19T15:41:00.800Z,13.51
2023-04-19T15:43:30.723Z,13.58
2023-04-19T15:45:59.202Z,13.56
2023-04-19T15:48:29.817Z,13.48
2023-04-19T15:50:59.191Z,13.10
2023-04-19T15:53:27.729Z,13.19
2023-04-19T15:55:56.294Z,12.97
2023-04-19T15:58:25.135Z,12.97
2023-04-19T16:00:55.102Z,12.81
2023-04-19T16:03:23.927Z,12.92
2023-04-19T16:05:52.613Z,12.82
2023-04-19T16:08:21.265Z,13.05
2023-04-19T16:10:51.046Z,12.99
2023-04-19T16:13:19.662Z,13.00
2023-04-19T16:15:48.126Z,12.78
2023-04-19T16:18:17.908Z,12.68
2023-04-19T16:20:46.325Z,12.81
2023-04-19T16:23:14.818Z,12.85
2023-04-19T16:25:43.344Z,12.91
2023-04-19T16:28:11.713Z,12.87
2023-04-19T16:30:40.050Z,12.88
2023-04-19T16:33:08.487Z,12.71
2023-04-19T16:35:38.229Z,12.62
2023-04-19T16:38:07.056Z,12.54
2023-04-19T16:40:35.489Z,12.56
2023-04-19T16:43:04.841Z,12.59
2023-04-19T16:45:33.367Z,12.47
2023-04-19T16:48:01.915Z,12.38
2023-04-19T16:50:30.552Z,12.49
2023-04-19T16:53:00.440Z,12.40
2023-04-19T16:55:28.973Z,12.33
2023-04-19T16:57:57.350Z,12.39
2023-04-19T17:00:26.106Z,12.27
2023-04-19T17:02:54.769Z,12.20
2023-04-19T17:05:23.301Z,12.28
2023-04-19T17:07:52.994Z,12.35
2023-04-19T17:10:26.276Z,12.29
2023-04-19T17:12:55.608Z,12.09
2023-04-19T17:15:23.983Z,12.06
2023-04-19T17:17:52.584Z,11.98
2023-04-19T17:20:21.216Z,12.08
2023-04-19T17:22:49.651Z,11.94
2023-04-19T17:25:18.864Z,11.95
2023-04-19T17:27:49.741Z,11.91
2023-04-19T17:30:18.213Z,11.72
2023-04-19T17:32:46.808Z,11.77
2023-04-19T17:35:16.371Z,11.76
2023-04-19T17:37:44.981Z,11.63
2023-04-19T17:40:14.013Z,11.61
2023-04-19T17:42:42.375Z,11.62
2023-04-19T17:45:13.219Z,11.63
2023-04-19T17:47:42.000Z,11.63
2023-04-19T17:50:13.813Z,11.52
2023-04-19T17:52:42.243Z,11.49
2023-04-19T17:55:11.139Z,11.48
2023-04-19T17:57:40.106Z,11.42
2023-04-19T18:00:11.954Z,11.35
2023-04-19T18:02:40.772Z,11.41
2023-04-19T18:05:09.796Z,11.33
2023-04-19T18:07:38.265Z,11.29
2023-04-19T18:10:08.071Z,11.27
2023-04-19T18:12:36.729Z,11.22
2023-04-19T18:15:07.270Z,11.17
2023-04-19T18:17:37.372Z,11.04
2023-04-19T18:20:07.278Z,11.04
2023-04-19T18:22:35.755Z,11.06
2023-04-19T18:25:04.187Z,11.02
2023-04-19T18:27:32.758Z,10.94
2023-04-19T18:30:03.742Z,11.00
2023-04-19T18:32:32.778Z,10.94
2023-04-19T18:35:04.135Z,10.87
2023-04-19T18:37:32.634Z,10.81
2023-04-19T18:40:01.099Z,10.82
2023-04-19T18:42:29.565Z,10.65
2023-04-19T18:44:57.988Z,10.76
2023-04-19T18:47:27.584Z,10.67
2023-04-19T18:52:28.741Z,10.57
2023-04-19T18:54:58.436Z,10.61
2023-04-19T18:57:27.841Z,10.46
2023-04-19T18:59:57.416Z,10.48
2023-04-19T19:02:27.413Z,10.49
2023-04-19T19:05:01.097Z,10.32
2023-04-19T19:10:10.733Z,10.22
2023-04-19T19:12:46.737Z,10.21
2023-04-19T19:15:15.813Z,10.17
2023-04-19T19:17:49.449Z,10.19
2023-04-19T19:20:19.645Z,10.15
2023-04-19T19:22:49.420Z,10.04
2023-04-19T19:25:17.856Z,9.96
2023-04-19T19:28:02.899Z,9.88
2023-04-19T19:30:34.823Z,9.89
2023-04-19T19:33:04.795Z,9.85
2023-04-19T19:35:33.601Z,9.86
2023-04-19T19:38:03.455Z,9.88
2023-04-19T19:40:32.983Z,9.85
2023-04-19T19:43:02.205Z,9.72
2023-04-19T19:45:31.332Z,9.82
2023-04-19T19:48:00.918Z,9.79
2023-04-19T19:53:03.096Z,9.70
2023-04-19T19:55:31.542Z,9.69
2023-04-19T20:00:44.991Z,9.66
2023-04-19T20:03:28.555Z,9.68
2023-04-19T20:06:17.756Z,9.67
2023-04-19T20:08:51.444Z,9.68
2023-04-19T20:11:24.703Z,9.72
2023-04-19T20:13:53.167Z,9.62
2023-04-19T20:16:21.638Z,9.56
2023-04-19T20:18:50.189Z,9.57
2023-04-19T20:21:19.651Z,9.57
2023-04-19T20:23:48.181Z,9.54
2023-04-19T20:26:17.973Z,9.46
2023-04-19T20:28:46.374Z,9.48
2023-04-19T20:31:14.774Z,9.50
2023-04-19T20:33:43.135Z,9.40
2023-04-19T20:36:13.909Z,9.38
2023-04-19T20:38:42.526Z,9.44
2023-04-19T20:41:10.840Z,9.38
2023-04-19T20:43:40.619Z,9.39
2023-04-19T20:46:09.429Z,9.39
2023-04-19T20:48:38.015Z,9.41
2023-04-19T20:51:06.459Z,9.43
2023-04-19T20:53:35.333Z,9.36
2023-04-19T20:56:03.759Z,9.25
2023-04-19T20:58:33.797Z,9.28
2023-04-19T21:01:03.616Z,9.26
2023-04-19T21:03:32.180Z,9.25
2023-04-19T21:06:00.712Z,9.15
2023-04-19T21:08:29.096Z,9.10
2023-04-19T21:10:57.558Z,9.09
2023-04-19T21:13:26.132Z,9.03
2023-04-19T21:15:54.706Z,8.90
2023-04-19T21:18:24.672Z,8.88
2023-04-19T21:20:53.150Z,8.92
2023-04-19T21:23:21.530Z,8.91
2023-04-19T21:25:49.946Z,8.90
2023-04-19T21:28:18.509Z,8.91
2023-04-19T21:30:47.007Z,8.92
2023-04-19T21:33:17.944Z,8.83
2023-04-19T21:35:47.678Z,8.81
2023-04-19T21:38:16.088Z,8.81
2023-04-19T21:40:44.481Z,8.77
2023-04-19T21:43:12.992Z,8.68
2023-04-19T21:45:41.356Z,8.70
2023-04-19T21:48:09.793Z,8.62
2023-04-19T21:50:38.298Z,8.58
2023-04-19T21:53:08.139Z,8.47
2023-04-19T21:55:36.533Z,8.41
2023-04-19T21:58:04.975Z,8.45
2023-04-19T22:00:33.480Z,8.33
2023-04-19T22:03:01.957Z,8.43
2023-04-19T22:05:30.532Z,8.36
2023-04-19T22:07:58.984Z,8.35
2023-04-19T22:10:31.461Z,8.41
2023-04-19T22:13:00.177Z,8.34
2023-04-19T22:15:28.664Z,8.32
2023-04-19T22:17:58.184Z,8.18
2023-04-19T22:20:27.169Z,8.14
2023-04-19T22:22:55.704Z,8.10
2023-04-19T22:25:24.115Z,8.14
2023-04-19T22:27:53.825Z,8.20
2023-04-19T22:30:22.338Z,8.20
2023-04-19T22:32:51.230Z,8.08
2023-04-19T22:35:22.585Z,8.10
2023-04-19T22:37:51.579Z,8.09
2023-04-19T22:40:20.034Z,8.01
2023-04-19T22:42:48.419Z,7.98
2023-04-19T22:45:18.355Z,7.96
2023-04-19T22:47:46.862Z,7.89
2023-04-19T22:50:15.566Z,7.88
2023-04-19T22:52:44.651Z,7.94
2023-04-19T22:55:13.133Z,8.02
2023-04-19T22:57:43.039Z,7.89
2023-04-19T23:00:12.799Z,7.87
2023-04-19T23:02:42.734Z,7.94
2023-04-19T23:05:11.441Z,7.98
2023-04-19T23:07:42.563Z,7.88
2023-04-19T23:10:12.319Z,7.80
2023-04-19T23:12:40.787Z,7.80
2023-04-19T23:15:11.153Z,7.75
2023-04-19T23:17:40.580Z,7.74
2023-04-19T23:20:12.058Z,7.78
2023-04-19T23:22:40.990Z,7.61
2023-04-19T23:25:10.620Z,7.58
2023-04-19T23:27:39.106Z,7.52
2023-04-19T23:30:09.285Z,7.56
2023-04-19T23:32:37.849Z,7.45
2023-04-19T23:35:06.959Z,7.34
2023-04-19T23:37:36.777Z,7.40
2023-04-19T23:40:06.713Z,7.31
2023-04-19T23:42:35.461Z,7.41
2023-04-19T23:45:03.971Z,7.30
2023-04-19T23:47:32.358Z,7.21
2023-04-19T23:50:01.514Z,7.15
2023-04-19T23:52:29.958Z,7.15
2023-04-19T23:54:59.706Z,7.21
2023-04-19T23:57:28.179Z,7.23
2023-04-19T23:59:56.705Z,7.19
